默认 日期 大小 文件数 浏览量 最新下载 xml
thrash磁力链接相关资源由用户搜索指令自动获取,结果来源于网络,本站不存储任何资料,亦不承担任何责任,请于24小时内删除,搜索到1564个磁力,用时1ms。
    {"Repressor-Agnoia-WEB-2018-ENTiTLED": {"10-repressor-duna-86b35e2c.mp3": 2977815, "00-repressor-agnoia-web-2018.jpg": 171164, "00-repressor-agnoia-web-2018.m3u": 342, "00-repressor-agnoia-web-2018.nfo": 3724, "02-repressor-cabral-26f2223a.mp3": 9123783, " ...
创建时间: 2019-02-28 09:32:52 大小:75.23 MB 文件数量:13 热度:1 最近下载:2021-06-17 16:25:58
    {"Info.txt": 908, "Front.jpg": 47415, "Band logo.jpg": 44505, "Photo band.jpg": 87641, "07 - Ratios.mp3": 9194216, "08 - Demean.mp3": 5570504, "MetalManiac.JPG": 35854, "05 - Beyond Our Sins.mp3": 6772973, "03 - Flesh & Memories.mp3": 6849452, "10 - ...
创建时间: 2019-03-07 03:04:15 大小:62.57 MB 文件数量:16 热度:4 最近下载:2025-05-17 12:56:01
    ... .mp3": 10977189, " 13. Let's Thrash.mp3": 11393014, " 09. Find The ...
创建时间: 2019-03-17 16:06:49 大小:147.75 MB 文件数量:17 热度:1 最近下载:2021-06-17 16:25:58
    {"FullDisc": {"QUICK_LICKS_DIMEBAG_DARRELL": {"VIDEO_TS": {"VIDEO_TS.BUP": 36864, "VIDEO_TS.IFO": 36864, "VIDEO_TS.VOB": 8192, "VTS_01_0.BUP": 18432, "VTS_01_0.IFO": 18432, "VTS_01_0.VOB": 16465920, "VTS_01_1.VOB": 7544832, "VTS_02_0.BUP": 20480, "VTS_02_0 ...
创建时间: 2019-03-18 02:45:54 大小:2.09 GB 文件数量:50 热度:5 最近下载:2025-01-31 10:53:03
    ... shake shake.mp3": 13438059, "08 - Thrash Around Кpемль.mp3": 8682728, "10 ...
创建时间: 2019-03-19 00:11:58 大小:332.94 MB 文件数量:39 热度:1 最近下载:2021-06-17 16:25:58
    {"Forged_in_Black-Descent_of_the_Serpent-WEB-2019-ENTiTLED": {"08-forged_in_black-vendetta-78eb8f0e.mp3": 14837030, "01-forged_in_black-seek_no_evil-be16e2cf.mp3": 8217259, "03-forged_in_black-shadowcasters-c4aebbed.mp3": 11146950, "05-forged_in_black- ...
创建时间: 2019-03-19 04:26:32 大小:112.36 MB 文件数量:12 热度:2 最近下载:2025-05-27 18:48:01
    ... Dogs - Wasted World (1990 - Thrash Ranch).mp3": 9787520, "19. ... Tempestad).mp3": 9459840, "20. Thrash Queen - Humbly Fleisch (1990 - ... , "13. Energetic Krusher - Thrash Ritual (1989 - Path To Oblivion ... ).mp3": 10315776}, "8.Thrash Metal Anthology Vol.VIII": ...
创建时间: 2019-03-20 23:34:19 大小:1.93 GB 文件数量:211 热度:7 最近下载:2023-04-23 02:20:16
    ... , "BLOOD I BLEED - High Octane Thrash (2007) [WMA Lossless] [Fallen Angel ... , "BLOOD I BLEED - High Octane Thrash (2007) [WMA Lossless] [Fallen Angel ... , "BLOOD I BLEED - High Octane Thrash (2007) [WMA Lossless] [Fallen Angel ...
创建时间: 2019-03-22 08:14:37 大小:207.67 MB 文件数量:44 热度:8 最近下载:2025-05-04 22:45:03
    {"Folder.jpg": 576378, "13. Problems.mp3": 5860063, "06. Free for All.mp3": 4079975, "07. Good Morning.mp3": 4599219, "09. Telepathetic.mp3": 6314739, "15. Devil's Teeth.mp3": 5684007, "20. Angel of Death.mp3": 6150558, "16. Purge the World.mp3": 5403979, ...
创建时间: 2019-03-22 09:40:54 大小:119.39 MB 文件数量:22 热度:6 最近下载:2022-04-09 06:33:08
    {"back.jpg": 294504, "front.jpg": 362605, "06 - X - No Connexion.mp3": 6955006, "02 - Doom - Dooms Days.mp3": 11867073, "05 - X - Stab Me In The Back.mp3": 7438808, "03 - Shell Shock - Endless War.mp3": 11348820, "09 - Ground Zero - Death Train.mp3": ...
创建时间: 2019-03-22 21:03:26 大小:100.36 MB 文件数量:14 热度:6 最近下载:2022-04-09 06:29:02
    {"Warfield-Wrecking_Command-WEB-2018-ENTiTLED": {"10-warfield-martyr-cf61e0f9.mp3": 9766337, "05-warfield-call_to_war-e2a5b341.mp3": 10013187, "03-warfield-barrage_fire-364a7010.mp3": 7928623, "04-warfield-divine_winds-b8e303d3.mp3": 12070561, "06-warfield ...
创建时间: 2019-03-22 22:32:34 大小:189.82 MB 文件数量:25 热度:4 最近下载:2022-04-09 07:16:39
    {"Exit_Smashed-Between_Death_and_Death-WEB-2018-ENTiTLED": {"05-exit_smashed-scum-9a43a6b0.mp3": 11764491, "02-exit_smashed-the_runs-5839303e.mp3": 8963461, "09-exit_smashed-barfight-290588d6.mp3": 11015608, "12-exit_smashed-lynchmob-d29de253.mp3": ...
创建时间: 2019-03-23 00:56:45 大小:96.81 MB 文件数量:15 热度:5 最近下载:2023-04-24 18:50:02
    {"DVD1": {"VIDEO_TS": {"VIDEO_TS.BUP": 6144, "VIDEO_TS.IFO": 6144, "VTS_01_0.BUP": 63488, "VTS_01_0.IFO": 63488, "VTS_01_0.VOB": 21723136, "VTS_01_1.VOB": 1073739776, "VTS_01_2.VOB": 1073739776, "VTS_01_3.VOB": 1073739776, "VTS_01_4.VOB": 1073739776, " ...
创建时间: 2019-03-23 01:27:40 大小:8.01 GB 文件数量:19 热度:8 最近下载:2025-03-20 06:45:02
    {"STAMPIN' GROUND - 1997 - Demons Run Amok": {"008 - Burn.mp3": 3232624, "007 - Manmade.mp3": 2962622, "001 - Damnation.mp3": 3327919, "011 - Blackened.mp3": 4437182, "006 - Scarlet Icon.mp3": 2917483, "009 - Wont Be Denied.mp3": 3076725, "010 - Idol ...
创建时间: 2019-03-23 23:28:49 大小:188.57 MB 文件数量:44 热度:5 最近下载:2022-04-09 06:13:08
    {"Alice_In_Hell-Creation_of_the_World-WEB-2018-ENTiTLED": {"03-alice_in_hell-rage_4_gt-84076e24.mp3": 6262357, "08-alice_in_hell-blood_fist-87ebe7b2.mp3": 8201539, "02-alice_in_hell-time_to_die-241a5125.mp3": 9603106, "07-alice_in_hell-cry_for_war-4a814c7f ...
创建时间: 2019-03-24 16:38:47 大小:69.98 MB 文件数量:11 热度:5 最近下载:2022-04-09 06:38:15
    ... - Prison Planet.mp3": 10819858, "02 - Thrash Odyssey.mp3": 15123792, "03 - Infinite ...
创建时间: 2019-03-25 01:08:19 大小:96.96 MB 文件数量:11 热度:6 最近下载:2022-04-13 06:09:55
    {"Band.jpg": 75378, "Logo.jpg": 23800, "Cover.jpg": 645721, "Cover 2 CD.jpg": 5119113, "CD 1 - The Last Of The Guaranis": {"12 - Hahem.mp3": 18282897, "11 - Urutau's Cry.mp3": 10889213, "07 - Vinte E Cinco.mp3": 5265573, "03 - Brado De Xango.mp3": 1747403, ...
创建时间: 2019-03-25 03:51:52 大小:227.47 MB 文件数量:27 热度:6 最近下载:2022-04-12 05:49:57
    {"09 - Intruder - Antipathy.mp3": 914775, "10 - Intruder - Mr. Death.mp3": 7969090, "02 - Intruder - The Martyr.mp3": 11607844, "04 - Intruder - Second Chance.mp3": 11739922, "06 - Intruder - Killing Winds.mp3": 13130054, "01 - Intruder - Time Of Trouble. ...
创建时间: 2019-03-26 03:13:19 大小:85.57 MB 文件数量:10 热度:5 最近下载:2024-12-16 07:57:02
    {"Antipeewee-Infected_by_Evil-WEB-2018-ENTiTLED": {"01-antipeewee-intro-1c0d911f.mp3": 3532863, "08-antipeewee-dagon-f5d6948e.mp3": 10956973, "02-antipeewee-hideous_fate-74615219.mp3": 15333216, "00-antipeewee-infected_by_evil-web-2018.jpg": 233591, "00- ...
创建时间: 2019-03-26 22:30:02 大小:219.08 MB 文件数量:26 热度:5 最近下载:2021-06-17 16:25:58
    {"cover.jpg": 85739, "03. Thrash.mp3": 9300327, "06. Pravica.mp3": ...
创建时间: 2019-03-27 23:49:18 大小:111.04 MB 文件数量:12 热度:8 最近下载:2023-02-27 20:10:03